Princeton, Massachusetts
Current Conditions -  °F | °C
As of 5:52 AM on Friday 24 Oct 2014 (Local Time) from KFIT Reporting Station
Moderate Rain Moderate Rain  
Wind Chill: 50°   Ceiling: 4600
Heat Index: 50°   Visibility: 7mi
Dew Point: 46°   Wind: 7mph
Humidity: 86%   Direction: 320°NW
Pressure: 29.71"   Gusts: NA
Location:  42.45°N, 71.88°W
Report Text: KFIT 240952Z AUTO 32006KT 7SM RA FEW036 BKN046 OVC080 10/08 A2971 RMK AO2 RAB02 SLP064 P0003 T01000078
Loading
Personal Weather Stations






























Interactive Weather Map
Tropical Storm Tracking
New forecast layout! Learn more

10-Day Weather Forecast

Advertisements
Track Severe Weather on mobile